sensor_id;sensor_type;location;lat;lon;timestamp;pressure;altitude;pressure_sealevel;temperature
19102;BMP280;9683;49.028;12.064;2023-10-31T00:00:21;95535.84;;;14.74
19102;BMP280;9683;49.028;12.064;2023-10-31T00:02:49;95539.84;;;14.76
19102;BMP280;9683;49.028;12.064;2023-10-31T00:05:16;95544.41;;;14.76
19102;BMP280;9683;49.028;12.064;2023-10-31T00:07:42;95534.78;;;14.75
19102;BMP280;9683;49.028;12.064;2023-10-31T00:10:09;95542.81;;;14.75
19102;BMP280;9683;49.028;12.064;2023-10-31T00:12:35;95539.63;;;14.73
19102;BMP280;9683;49.028;12.064;2023-10-31T00:15:02;95540.41;;;14.73
19102;BMP280;9683;49.028;12.064;2023-10-31T00:17:29;95534.84;;;14.69
19102;BMP280;9683;49.028;12.064;2023-10-31T00:19:56;95536.25;;;14.67
19102;BMP280;9683;49.028;12.064;2023-10-31T00:22:23;95544.06;;;14.63
19102;BMP280;9683;49.028;12.064;2023-10-31T00:24:50;95548.91;;;14.61
19102;BMP280;9683;49.028;12.064;2023-10-31T00:27:16;95551.44;;;14.53
19102;BMP280;9683;49.028;12.064;2023-10-31T00:29:43;95565.63;;;14.53
19102;BMP280;9683;49.028;12.064;2023-10-31T00:32:09;95560.19;;;14.58
19102;BMP280;9683;49.028;12.064;2023-10-31T00:34:36;95567.41;;;14.58
19102;BMP280;9683;49.028;12.064;2023-10-31T00:37:03;95560.25;;;14.53
19102;BMP280;9683;49.028;12.064;2023-10-31T00:39:30;95571.97;;;14.57
19102;BMP280;9683;49.028;12.064;2023-10-31T00:41:58;95569.81;;;14.59
19102;BMP280;9683;49.028;12.064;2023-10-31T00:44:25;95577.25;;;14.62
19102;BMP280;9683;49.028;12.064;2023-10-31T00:46:51;95580.94;;;14.66
19102;BMP280;9683;49.028;12.064;2023-10-31T00:49:18;95569.66;;;14.69
19102;BMP280;9683;49.028;12.064;2023-10-31T00:51:45;95569.38;;;14.71
19102;BMP280;9683;49.028;12.064;2023-10-31T00:54:12;95569.56;;;14.75
19102;BMP280;9683;49.028;12.064;2023-10-31T00:56:39;95567.50;;;14.72
19102;BMP280;9683;49.028;12.064;2023-10-31T00:59:06;95567.19;;;14.73
19102;BMP280;9683;49.028;12.064;2023-10-31T01:01:32;95564.81;;;14.72
19102;BMP280;9683;49.028;12.064;2023-10-31T01:03:59;95558.94;;;14.69
19102;BMP280;9683;49.028;12.064;2023-10-31T01:06:25;95573.72;;;14.67
19102;BMP280;9683;49.028;12.064;2023-10-31T01:08:52;95574.00;;;14.65
19102;BMP280;9683;49.028;12.064;2023-10-31T01:11:19;95571.03;;;14.67
19102;BMP280;9683;49.028;12.064;2023-10-31T01:13:46;95579.94;;;14.62
19102;BMP280;9683;49.028;12.064;2023-10-31T01:16:12;95582.63;;;14.62
19102;BMP280;9683;49.028;12.064;2023-10-31T01:18:39;95580.75;;;14.63
19102;BMP280;9683;49.028;12.064;2023-10-31T01:21:05;95589.56;;;14.63
19102;BMP280;9683;49.028;12.064;2023-10-31T01:23:34;95583.91;;;14.65
19102;BMP280;9683;49.028;12.064;2023-10-31T01:26:00;95585.88;;;14.59
19102;BMP280;9683;49.028;12.064;2023-10-31T01:28:28;95593.38;;;14.57
19102;BMP280;9683;49.028;12.064;2023-10-31T01:30:55;95581.69;;;14.53
19102;BMP280;9683;49.028;12.064;2023-10-31T01:33:21;95595.66;;;14.50
19102;BMP280;9683;49.028;12.064;2023-10-31T01:35:48;95591.16;;;14.46
19102;BMP280;9683;49.028;12.064;2023-10-31T01:38:14;95604.25;;;14.47
19102;BMP280;9683;49.028;12.064;2023-10-31T01:40:40;95596.78;;;14.44
19102;BMP280;9683;49.028;12.064;2023-10-31T01:43:06;95599.19;;;14.46
19102;BMP280;9683;49.028;12.064;2023-10-31T01:45:34;95599.69;;;14.48
19102;BMP280;9683;49.028;12.064;2023-10-31T01:48:00;95608.81;;;14.47
19102;BMP280;9683;49.028;12.064;2023-10-31T01:50:27;95600.06;;;14.41
19102;BMP280;9683;49.028;12.064;2023-10-31T01:52:54;95601.44;;;14.39
19102;BMP280;9683;49.028;12.064;2023-10-31T01:55:20;95604.91;;;14.39
19102;BMP280;9683;49.028;12.064;2023-10-31T01:57:48;95596.56;;;14.41
19102;BMP280;9683;49.028;12.064;2023-10-31T02:00:16;95599.03;;;14.37
19102;BMP280;9683;49.028;12.064;2023-10-31T02:02:44;95611.28;;;14.43
19102;BMP280;9683;49.028;12.064;2023-10-31T02:05:11;95597.16;;;14.38
19102;BMP280;9683;49.028;12.064;2023-10-31T02:07:37;95590.22;;;14.37
19102;BMP280;9683;49.028;12.064;2023-10-31T02:10:05;95599.31;;;14.36
19102;BMP280;9683;49.028;12.064;2023-10-31T02:12:32;95598.50;;;14.35
19102;BMP280;9683;49.028;12.064;2023-10-31T02:14:59;95599.59;;;14.34
19102;BMP280;9683;49.028;12.064;2023-10-31T02:17:25;95608.94;;;14.37
19102;BMP280;9683;49.028;12.064;2023-10-31T02:19:54;95608.06;;;14.41
19102;BMP280;9683;49.028;12.064;2023-10-31T02:22:21;95611.28;;;14.43
19102;BMP280;9683;49.028;12.064;2023-10-31T02:24:48;95610.47;;;14.43
19102;BMP280;9683;49.028;12.064;2023-10-31T02:27:15;95620.06;;;14.44
19102;BMP280;9683;49.028;12.064;2023-10-31T02:29:41;95628.63;;;14.46
19102;BMP280;9683;49.028;12.064;2023-10-31T02:32:07;95624.88;;;14.47
19102;BMP280;9683;49.028;12.064;2023-10-31T02:34:34;95628.91;;;14.44
19102;BMP280;9683;49.028;12.064;2023-10-31T02:37:01;95619.91;;;14.35
19102;BMP280;9683;49.028;12.064;2023-10-31T02:39:28;95629.75;;;14.40
19102;BMP280;9683;49.028;12.064;2023-10-31T02:41:55;95635.97;;;14.35
19102;BMP280;9683;49.028;12.064;2023-10-31T02:44:21;95604.16;;;14.10
19102;BMP280;9683;49.028;12.064;2023-10-31T02:46:48;95653.22;;;14.24
19102;BMP280;9683;49.028;12.064;2023-10-31T02:49:14;95657.53;;;14.20
19102;BMP280;9683;49.028;12.064;2023-10-31T02:51:41;95654.06;;;14.19
19102;BMP280;9683;49.028;12.064;2023-10-31T02:54:07;95644.53;;;14.13
19102;BMP280;9683;49.028;12.064;2023-10-31T02:56:35;95633.09;;;14.08
19102;BMP280;9683;49.028;12.064;2023-10-31T02:59:02;95645.88;;;14.11
19102;BMP280;9683;49.028;12.064;2023-10-31T03:01:28;95651.81;;;14.08
19102;BMP280;9683;49.028;12.064;2023-10-31T03:03:55;95647.84;;;14.05
19102;BMP280;9683;49.028;12.064;2023-10-31T03:06:21;95652.38;;;14.05
19102;BMP280;9683;49.028;12.064;2023-10-31T03:08:48;95661.97;;;14.06
19102;BMP280;9683;49.028;12.064;2023-10-31T03:11:21;95664.66;;;14.06
19102;BMP280;9683;49.028;12.064;2023-10-31T03:13:49;95664.66;;;14.06
19102;BMP280;9683;49.028;12.064;2023-10-31T03:16:16;95671.09;;;14.05
19102;BMP280;9683;49.028;12.064;2023-10-31T03:18:42;95674.31;;;14.02
19102;BMP280;9683;49.028;12.064;2023-10-31T03:21:09;95682.94;;;13.99
19102;BMP280;9683;49.028;12.064;2023-10-31T03:23:35;95679.19;;;14.00
19102;BMP280;9683;49.028;12.064;2023-10-31T03:26:02;95677.59;;;13.99
19102;BMP280;9683;49.028;12.064;2023-10-31T03:28:29;95686.19;;;13.96
19102;BMP280;9683;49.028;12.064;2023-10-31T03:30:56;95684.56;;;13.95
19102;BMP280;9683;49.028;12.064;2023-10-31T03:33:23;95678.25;;;13.86
19102;BMP280;9683;49.028;12.064;2023-10-31T03:35:49;95681.22;;;13.84
19102;BMP280;9683;49.028;12.064;2023-10-31T03:38:16;95691.66;;;13.81
19102;BMP280;9683;49.028;12.064;2023-10-31T03:40:42;95689.88;;;13.76
19102;BMP280;9683;49.028;12.064;2023-10-31T03:43:09;95698.72;;;13.71
19102;BMP280;9683;49.028;12.064;2023-10-31T03:45:35;95696.06;;;13.71
19102;BMP280;9683;49.028;12.064;2023-10-31T03:48:04;95699.00;;;13.70
19102;BMP280;9683;49.028;12.064;2023-10-31T03:50:30;95697.97;;;13.66
19102;BMP280;9683;49.028;12.064;2023-10-31T03:52:57;95696.66;;;13.63
19102;BMP280;9683;49.028;12.064;2023-10-31T03:55:23;95697.44;;;13.64
19102;BMP280;9683;49.028;12.064;2023-10-31T03:57:50;95700.09;;;13.64
19102;BMP280;9683;49.028;12.064;2023-10-31T04:00:17;95682.59;;;13.53
19102;BMP280;9683;49.028;12.064;2023-10-31T04:02:43;95695.94;;;13.53
19102;BMP280;9683;49.028;12.064;2023-10-31T04:05:11;95692.19;;;13.54
19102;BMP280;9683;49.028;12.064;2023-10-31T04:07:38;95710.69;;;13.50
19102;BMP280;9683;49.028;12.064;2023-10-31T04:10:05;95688.25;;;13.46
19102;BMP280;9683;49.028;12.064;2023-10-31T04:12:33;95712.56;;;13.45
19102;BMP280;9683;49.028;12.064;2023-10-31T04:14:59;95707.56;;;13.38
19102;BMP280;9683;49.028;12.064;2023-10-31T04:17:25;95715.09;;;13.31
19102;BMP280;9683;49.028;12.064;2023-10-31T04:19:52;95719.97;;;13.24
19102;BMP280;9683;49.028;12.064;2023-10-31T04:22:20;95721.31;;;13.21
19102;BMP280;9683;49.028;12.064;2023-10-31T04:24:46;95730.69;;;13.14
19102;BMP280;9683;49.028;12.064;2023-10-31T04:27:13;95741.41;;;13.09
19102;BMP280;9683;49.028;12.064;2023-10-31T04:29:39;95740.59;;;13.08
19102;BMP280;9683;49.028;12.064;2023-10-31T04:32:09;95740.88;;;13.07
19102;BMP280;9683;49.028;12.064;2023-10-31T04:34:36;95743.56;;;13.02
19102;BMP280;9683;49.028;12.064;2023-10-31T04:37:02;95747.59;;;12.99
19102;BMP280;9683;49.028;12.064;2023-10-31T04:39:30;95750.78;;;13.01
19102;BMP280;9683;49.028;12.064;2023-10-31T04:41:57;95731.88;;;12.93
19102;BMP280;9683;49.028;12.064;2023-10-31T04:44:23;95736.13;;;12.99
19102;BMP280;9683;49.028;12.064;2023-10-31T04:46:50;95729.47;;;12.96
19102;BMP280;9683;49.028;12.064;2023-10-31T04:49:16;95718.84;;;12.86
19102;BMP280;9683;49.028;12.064;2023-10-31T04:51:43;95731.41;;;12.80
19102;BMP280;9683;49.028;12.064;2023-10-31T04:54:09;95750.91;;;12.76
19102;BMP280;9683;49.028;12.064;2023-10-31T04:56:37;95759.47;;;12.73
19102;BMP280;9683;49.028;12.064;2023-10-31T04:59:04;95763.75;;;12.69
19102;BMP280;9683;49.028;12.064;2023-10-31T05:01:30;95755.50;;;12.70
19102;BMP280;9683;49.028;12.064;2023-10-31T05:03:57;95758.66;;;12.72
19102;BMP280;9683;49.028;12.064;2023-10-31T05:06:27;95760.25;;;12.78
19102;BMP280;9683;49.028;12.064;2023-10-31T05:08:53;95762.63;;;12.80
19102;BMP280;9683;49.028;12.064;2023-10-31T05:11:20;95755.66;;;12.84
19102;BMP280;9683;49.028;12.064;2023-10-31T05:13:48;95755.66;;;12.89
19102;BMP280;9683;49.028;12.064;2023-10-31T05:16:14;95759.38;;;12.88
19102;BMP280;9683;49.028;12.064;2023-10-31T05:18:41;95767.94;;;12.85
19102;BMP280;9683;49.028;12.064;2023-10-31T05:21:07;95779.16;;;12.87
19102;BMP280;9683;49.028;12.064;2023-10-31T05:23:34;95785.81;;;12.90
19102;BMP280;9683;49.028;12.064;2023-10-31T05:26:00;95783.38;;;12.93
19102;BMP280;9683;49.028;12.064;2023-10-31T05:28:27;95776.41;;;12.97
19102;BMP280;9683;49.028;12.064;2023-10-31T05:30:55;95794.59;;;13.00
19102;BMP280;9683;49.028;12.064;2023-10-31T05:33:21;95801.00;;;12.99
19102;BMP280;9683;49.028;12.064;2023-10-31T05:35:48;95806.03;;;13.01
19102;BMP280;9683;49.028;12.064;2023-10-31T05:38:15;95814.34;;;12.99
19102;BMP280;9683;49.028;12.064;2023-10-31T05:40:42;95818.06;;;12.98
19102;BMP280;9683;49.028;12.064;2023-10-31T05:43:08;95823.69;;;12.97
19102;BMP280;9683;49.028;12.064;2023-10-31T05:45:35;95825.56;;;12.96
19102;BMP280;9683;49.028;12.064;2023-10-31T05:48:03;95827.94;;;12.98
19102;BMP280;9683;49.028;12.064;2023-10-31T05:50:30;95829.56;;;12.99
19102;BMP280;9683;49.028;12.064;2023-10-31T05:52:56;95835.13;;;13.02
19102;BMP280;9683;49.028;12.064;2023-10-31T05:55:23;95838.34;;;13.04
19102;BMP280;9683;49.028;12.064;2023-10-31T05:57:49;95842.09;;;13.03
19102;BMP280;9683;49.028;12.064;2023-10-31T06:00:16;95855.41;;;13.08
19102;BMP280;9683;49.028;12.064;2023-10-31T06:02:43;95862.63;;;13.08
19102;BMP280;9683;49.028;12.064;2023-10-31T06:05:11;95867.97;;;13.13
19102;BMP280;9683;49.028;12.064;2023-10-31T06:07:37;95874.09;;;13.13
19102;BMP280;9683;49.028;12.064;2023-10-31T06:10:05;95878.38;;;13.14
19102;BMP280;9683;49.028;12.064;2023-10-31T06:12:32;95870.34;;;13.09
19102;BMP280;9683;49.028;12.064;2023-10-31T06:14:58;95878.13;;;13.11
19102;BMP280;9683;49.028;12.064;2023-10-31T06:17:25;95881.56;;;13.06
19102;BMP280;9683;49.028;12.064;2023-10-31T06:19:52;95890.94;;;13.04
19102;BMP280;9683;49.028;12.064;2023-10-31T06:22:19;95893.31;;;13.05
19102;BMP280;9683;49.028;12.064;2023-10-31T06:24:46;95902.16;;;13.01
19102;BMP280;9683;49.028;12.064;2023-10-31T06:27:12;95890.69;;;13.00
19102;BMP280;9683;49.028;12.064;2023-10-31T06:29:39;95906.72;;;13.00
19102;BMP280;9683;49.028;12.064;2023-10-31T06:32:06;95908.03;;;13.03
19102;BMP280;9683;49.028;12.064;2023-10-31T06:34:32;95918.97;;;13.01
19102;BMP280;9683;49.028;12.064;2023-10-31T06:36:59;95927.53;;;12.98
19102;BMP280;9683;49.028;12.064;2023-10-31T06:39:27;95935.28;;;12.95
19102;BMP280;9683;49.028;12.064;2023-10-31T06:41:54;95938.75;;;12.90
19102;BMP280;9683;49.028;12.064;2023-10-31T06:44:21;95948.09;;;12.93
19102;BMP280;9683;49.028;12.064;2023-10-31T06:46:48;95953.97;;;12.95
19102;BMP280;9683;49.028;12.064;2023-10-31T06:49:14;95964.09;;;12.93
19102;BMP280;9683;49.028;12.064;2023-10-31T06:51:41;95966.53;;;12.94
19102;BMP280;9683;49.028;12.064;2023-10-31T06:54:07;95975.34;;;12.95
19102;BMP280;9683;49.028;12.064;2023-10-31T06:56:35;95981.19;;;12.97
19102;BMP280;9683;49.028;12.064;2023-10-31T06:59:02;95981.19;;;12.97
19102;BMP280;9683;49.028;12.064;2023-10-31T07:01:29;95987.88;;;12.99
19102;BMP280;9683;49.028;12.064;2023-10-31T07:03:56;95985.72;;;13.01
19102;BMP280;9683;49.028;12.064;2023-10-31T07:06:23;95985.47;;;13.03
19102;BMP280;9683;49.028;12.064;2023-10-31T07:08:49;95987.06;;;13.04
19102;BMP280;9683;49.028;12.064;2023-10-31T07:11:16;95992.91;;;13.06
19102;BMP280;9683;49.028;12.064;2023-10-31T07:13:43;95976.09;;;13.05
19102;BMP280;9683;49.028;12.064;2023-10-31T07:16:10;95953.16;;;12.94
19102;BMP280;9683;49.028;12.064;2023-10-31T07:18:36;95987.06;;;13.09
19102;BMP280;9683;49.028;12.064;2023-10-31T07:21:04;95986.78;;;13.15
19102;BMP280;9683;49.028;12.064;2023-10-31T07:23:30;95991.06;;;13.16
19102;BMP280;9683;49.028;12.064;2023-10-31T07:25:57;95989.97;;;13.17
19102;BMP280;9683;49.028;12.064;2023-10-31T07:28:23;95986.78;;;13.20
19102;BMP280;9683;49.028;12.064;2023-10-31T07:30:51;95971.28;;;13.22
19102;BMP280;9683;49.028;12.064;2023-10-31T07:33:18;95965.94;;;13.22
19102;BMP280;9683;49.028;12.064;2023-10-31T07:35:45;95965.41;;;13.25
19102;BMP280;9683;49.028;12.064;2023-10-31T07:38:11;95962.44;;;13.27
19102;BMP280;9683;49.028;12.064;2023-10-31T07:40:38;95970.47;;;13.27
19102;BMP280;9683;49.028;12.064;2023-10-31T07:43:04;95962.44;;;13.27
19102;BMP280;9683;49.028;12.064;2023-10-31T07:45:31;95971.81;;;13.29
19102;BMP280;9683;49.028;12.064;2023-10-31T07:47:58;95976.88;;;13.31
19102;BMP280;9683;49.028;12.064;2023-10-31T07:50:25;95986.22;;;13.28
19102;BMP280;9683;49.028;12.064;2023-10-31T07:52:51;95979.28;;;13.32
19102;BMP280;9683;49.028;12.064;2023-10-31T07:55:18;95969.38;;;13.38
19102;BMP280;9683;49.028;12.064;2023-10-31T07:57:44;95964.00;;;13.43
19102;BMP280;9683;49.028;12.064;2023-10-31T08:00:12;95970.13;;;13.49
19102;BMP280;9683;49.028;12.064;2023-10-31T08:02:39;95932.56;;;13.25
19102;BMP280;9683;49.028;12.064;2023-10-31T08:05:07;95961.06;;;13.45
19102;BMP280;9683;49.028;12.064;2023-10-31T08:07:34;95962.44;;;13.37
19102;BMP280;9683;49.028;12.064;2023-10-31T08:10:00;95958.16;;;13.36
19102;BMP280;9683;49.028;12.064;2023-10-31T08:12:27;95958.41;;;13.40
19102;BMP280;9683;49.028;12.064;2023-10-31T08:14:53;95965.91;;;13.38
19102;BMP280;9683;49.028;12.064;2023-10-31T08:17:20;95967.78;;;13.32
19102;BMP280;9683;49.028;12.064;2023-10-31T08:19:46;95984.34;;;13.34
19102;BMP280;9683;49.028;12.064;2023-10-31T08:22:14;95983.56;;;13.34
19102;BMP280;9683;49.028;12.064;2023-10-31T08:24:40;95982.47;;;13.35
19102;BMP280;9683;49.028;12.064;2023-10-31T08:27:07;95960.59;;;13.22
19102;BMP280;9683;49.028;12.064;2023-10-31T08:29:33;95990.72;;;13.43
19102;BMP280;9683;49.028;12.064;2023-10-31T08:32:00;96001.13;;;13.45
19102;BMP280;9683;49.028;12.064;2023-10-31T08:34:26;95997.66;;;13.49
19102;BMP280;9683;49.028;12.064;2023-10-31T08:36:52;96017.16;;;13.50
19102;BMP280;9683;49.028;12.064;2023-10-31T08:39:23;96010.47;;;13.52
19102;BMP280;9683;49.028;12.064;2023-10-31T08:41:50;96019.03;;;13.54
19102;BMP280;9683;49.028;12.064;2023-10-31T08:44:17;96027.28;;;13.58
19102;BMP280;9683;49.028;12.064;2023-10-31T08:46:43;96029.97;;;13.58
19102;BMP280;9683;49.028;12.064;2023-10-31T08:49:10;96016.59;;;13.53
19102;BMP280;9683;49.028;12.064;2023-10-31T08:51:36;96017.16;;;13.45
19102;BMP280;9683;49.028;12.064;2023-10-31T08:54:03;96025.72;;;13.47
19102;BMP280;9683;49.028;12.064;2023-10-31T08:56:31;96017.97;;;13.50
19102;BMP280;9683;49.028;12.064;2023-10-31T08:58:57;96028.09;;;13.53
19102;BMP280;9683;49.028;12.064;2023-10-31T09:01:24;96052.41;;;13.57
19102;BMP280;9683;49.028;12.064;2023-10-31T09:03:50;96072.47;;;13.59
19102;BMP280;9683;49.028;12.064;2023-10-31T09:06:17;96068.97;;;13.59
19102;BMP280;9683;49.028;12.064;2023-10-31T09:08:43;96075.13;;;13.59
19102;BMP280;9683;49.028;12.064;2023-10-31T09:11:10;96071.66;;;13.59
19102;BMP280;9683;49.028;12.064;2023-10-31T09:13:37;96061.47;;;13.61
19102;BMP280;9683;49.028;12.064;2023-10-31T09:16:04;96071.38;;;13.60
19102;BMP280;9683;49.028;12.064;2023-10-31T09:18:31;96076.72;;;13.60
19102;BMP280;9683;49.028;12.064;2023-10-31T09:20:57;96071.38;;;13.55
19102;BMP280;9683;49.028;12.064;2023-10-31T09:23:24;96079.13;;;13.52
19102;BMP280;9683;49.028;12.064;2023-10-31T09:25:50;96089.81;;;13.52
19102;BMP280;9683;49.028;12.064;2023-10-31T09:28:17;96097.59;;;13.53
19102;BMP280;9683;49.028;12.064;2023-10-31T09:30:45;96100.00;;;13.55
19102;BMP280;9683;49.028;12.064;2023-10-31T09:33:11;96105.06;;;13.51
19102;BMP280;9683;49.028;12.064;2023-10-31T09:35:38;96113.06;;;13.51
19102;BMP280;9683;49.028;12.064;2023-10-31T09:38:05;96106.41;;;13.49
19102;BMP280;9683;49.028;12.064;2023-10-31T09:40:31;96104.81;;;13.48
19102;BMP280;9683;49.028;12.064;2023-10-31T09:42:58;96098.66;;;13.47
19102;BMP280;9683;49.028;12.064;2023-10-31T09:45:24;96105.06;;;13.51
19102;BMP280;9683;49.028;12.064;2023-10-31T09:47:52;96100.50;;;13.57
19102;BMP280;9683;49.028;12.064;2023-10-31T09:50:19;96105.31;;;13.60
19102;BMP280;9683;49.028;12.064;2023-10-31T09:52:46;96083.41;;;13.63
19102;BMP280;9683;49.028;12.064;2023-10-31T09:55:13;96081.78;;;13.67
19102;BMP280;9683;49.028;12.064;2023-10-31T09:57:40;96064.41;;;13.64
19102;BMP280;9683;49.028;12.064;2023-10-31T10:00:07;96047.84;;;13.62
19102;BMP280;9683;49.028;12.064;2023-10-31T10:02:35;96042.25;;;13.59
19102;BMP280;9683;49.028;12.064;2023-10-31T10:05:04;96044.63;;;13.60
19102;BMP280;9683;49.028;12.064;2023-10-31T10:07:33;96052.66;;;13.60
19102;BMP280;9683;49.028;12.064;2023-10-31T10:10:00;96058.31;;;13.54
19102;BMP280;9683;49.028;12.064;2023-10-31T10:12:26;96059.09;;;13.54
19102;BMP280;9683;49.028;12.064;2023-10-31T10:14:53;96077.81;;;13.54
19102;BMP280;9683;49.028;12.064;2023-10-31T10:17:21;96070.59;;;13.55
19102;BMP280;9683;49.028;12.064;2023-10-31T10:19:48;96068.19;;;13.53
19102;BMP280;9683;49.028;12.064;2023-10-31T10:22:31;96085.28;;;13.57
19102;BMP280;9683;49.028;12.064;2023-10-31T10:24:58;96087.16;;;13.57
19102;BMP280;9683;49.028;12.064;2023-10-31T10:27:24;96084.22;;;13.58
19102;BMP280;9683;49.028;12.064;2023-10-31T10:29:52;96094.63;;;13.60
19102;BMP280;9683;49.028;12.064;2023-10-31T10:32:19;96100.78;;;13.55
19102;BMP280;9683;49.028;12.064;2023-10-31T10:34:46;96106.41;;;13.54
19102;BMP280;9683;49.028;12.064;2023-10-31T10:37:12;96113.88;;;13.57
19102;BMP280;9683;49.028;12.064;2023-10-31T10:39:41;96099.19;;;13.39
19102;BMP280;9683;49.028;12.064;2023-10-31T10:42:10;96117.59;;;13.56
19102;BMP280;9683;49.028;12.064;2023-10-31T10:44:40;96130.72;;;13.57
19102;BMP280;9683;49.028;12.064;2023-10-31T10:47:08;96116.81;;;13.55
19102;BMP280;9683;49.028;12.064;2023-10-31T10:49:34;96120.03;;;13.52
19102;BMP280;9683;49.028;12.064;2023-10-31T10:52:13;96113.88;;;13.52
19102;BMP280;9683;49.028;12.064;2023-10-31T10:54:45;96114.44;;;13.54
19102;BMP280;9683;49.028;12.064;2023-10-31T10:57:21;96124.81;;;13.55
19102;BMP280;9683;49.028;12.064;2023-10-31T10:59:51;96114.94;;;13.56
19102;BMP280;9683;49.028;12.064;2023-10-31T11:02:22;96117.09;;;13.59
19102;BMP280;9683;49.028;12.064;2023-10-31T11:04:49;96129.09;;;13.61
19102;BMP280;9683;49.028;12.064;2023-10-31T11:07:17;96114.94;;;13.61
19102;BMP280;9683;49.028;12.064;2023-10-31T11:09:47;96118.66;;;13.60
19102;BMP280;9683;49.028;12.064;2023-10-31T11:12:14;96125.13;;;13.59
19102;BMP280;9683;49.028;12.064;2023-10-31T11:14:42;96123.50;;;13.58
19102;BMP280;9683;49.028;12.064;2023-10-31T11:17:16;96081.59;;;13.38
19102;BMP280;9683;49.028;12.064;2023-10-31T11:19:48;96118.72;;;13.55
19102;BMP280;9683;49.028;12.064;2023-10-31T11:22:17;96133.38;;;13.52
19102;BMP280;9683;49.028;12.064;2023-10-31T11:24:43;96138.50;;;13.28
19102;BMP280;9683;49.028;12.064;2023-10-31T11:27:12;96151.78;;;12.93
19102;BMP280;9683;49.028;12.064;2023-10-31T11:29:38;96154.97;;;12.70
19102;BMP280;9683;49.028;12.064;2023-10-31T11:32:08;96150.63;;;12.44
19102;BMP280;9683;49.028;12.064;2023-10-31T11:34:39;96176.66;;;12.16
19102;BMP280;9683;49.028;12.064;2023-10-31T11:37:25;96149.59;;;11.82
19102;BMP280;9683;49.028;12.064;2023-10-31T11:40:15;96165.78;;;11.76
19102;BMP280;9683;49.028;12.064;2023-10-31T11:42:43;96149.00;;;11.75
19102;BMP280;9683;49.028;12.064;2023-10-31T11:45:10;96165.50;;;11.72
19102;BMP280;9683;49.028;12.064;2023-10-31T11:47:55;96162.06;;;11.77
19102;BMP280;9683;49.028;12.064;2023-10-31T11:50:22;96160.25;;;11.82
19102;BMP280;9683;49.028;12.064;2023-10-31T11:52:59;96146.44;;;11.95
19102;BMP280;9683;49.028;12.064;2023-10-31T11:55:26;96151.81;;;12.06
19102;BMP280;9683;49.028;12.064;2023-10-31T11:57:55;96145.47;;;12.17
19102;BMP280;9683;49.028;12.064;2023-10-31T12:00:22;96138.03;;;12.29
19102;BMP280;9683;49.028;12.064;2023-10-31T12:02:59;96134.34;;;12.40
19102;BMP280;9683;49.028;12.064;2023-10-31T12:05:25;96141.56;;;12.45
19102;BMP280;9683;49.028;12.064;2023-10-31T12:07:53;96129.31;;;12.54
19102;BMP280;9683;49.028;12.064;2023-10-31T12:10:24;96118.63;;;12.59
19102;BMP280;9683;49.028;12.064;2023-10-31T12:12:52;96128.25;;;12.60
19102;BMP280;9683;49.028;12.064;2023-10-31T12:15:20;96126.94;;;12.57
19102;BMP280;9683;49.028;12.064;2023-10-31T12:17:47;96145.84;;;12.51
19102;BMP280;9683;49.028;12.064;2023-10-31T12:20:14;96134.38;;;12.45
19102;BMP280;9683;49.028;12.064;2023-10-31T12:22:41;96138.63;;;12.46
19102;BMP280;9683;49.028;12.064;2023-10-31T12:25:08;96127.69;;;12.48
19102;BMP280;9683;49.028;12.064;2023-10-31T12:27:42;96138.63;;;12.51
19102;BMP280;9683;49.028;12.064;2023-10-31T12:30:10;96121.84;;;12.46
19102;BMP280;9683;49.028;12.064;2023-10-31T12:32:40;96137.34;;;12.54
19102;BMP280;9683;49.028;12.064;2023-10-31T12:35:08;96157.06;;;12.63
19102;BMP280;9683;49.028;12.064;2023-10-31T12:37:41;96151.47;;;12.64
19102;BMP280;9683;49.028;12.064;2023-10-31T12:40:09;96156.03;;;12.69
19102;BMP280;9683;49.028;12.064;2023-10-31T12:42:36;96159.78;;;12.78
19102;BMP280;9683;49.028;12.064;2023-10-31T12:45:03;96166.75;;;12.89
19102;BMP280;9683;49.028;12.064;2023-10-31T12:47:30;96165.16;;;12.93
19102;BMP280;9683;49.028;12.064;2023-10-31T12:50:09;96164.63;;;13.01
19102;BMP280;9683;49.028;12.064;2023-10-31T12:52:46;96171.31;;;13.04
19102;BMP280;9683;49.028;12.064;2023-10-31T12:55:14;96171.84;;;13.06
19102;BMP280;9683;49.028;12.064;2023-10-31T12:57:40;96169.19;;;13.11
19102;BMP280;9683;49.028;12.064;2023-10-31T13:00:08;96168.94;;;13.17
19102;BMP280;9683;49.028;12.064;2023-10-31T13:02:38;96180.44;;;13.28
19102;BMP280;9683;49.028;12.064;2023-10-31T13:05:10;96174.28;;;13.32
19102;BMP280;9683;49.028;12.064;2023-10-31T13:07:38;96181.50;;;13.32
19102;BMP280;9683;49.028;12.064;2023-10-31T13:10:06;96179.63;;;13.38
19102;BMP280;9683;49.028;12.064;2023-10-31T13:12:35;96180.97;;;13.40
19102;BMP280;9683;49.028;12.064;2023-10-31T13:15:01;96185.50;;;13.45
19102;BMP280;9683;49.028;12.064;2023-10-31T13:17:28;96183.66;;;13.50
19102;BMP280;9683;49.028;12.064;2023-10-31T13:19:56;96196.47;;;13.53
19102;BMP280;9683;49.028;12.064;2023-10-31T13:22:24;96192.44;;;13.56
19102;BMP280;9683;49.028;12.064;2023-10-31T13:24:51;96199.13;;;13.58
19102;BMP280;9683;49.028;12.064;2023-10-31T13:27:17;96194.31;;;13.60
19102;BMP280;9683;49.028;12.064;2023-10-31T13:29:44;96207.41;;;13.62
19102;BMP280;9683;49.028;12.064;2023-10-31T13:32:15;96205.56;;;13.67
19102;BMP280;9683;49.028;12.064;2023-10-31T13:34:41;96213.28;;;13.69
19102;BMP280;9683;49.028;12.064;2023-10-31T13:37:08;96214.34;;;13.73
19102;BMP280;9683;49.028;12.064;2023-10-31T13:39:36;96217.28;;;13.76
19102;BMP280;9683;49.028;12.064;2023-10-31T13:42:02;96220.75;;;13.77
19102;BMP280;9683;49.028;12.064;2023-10-31T13:44:29;96222.63;;;13.76
19102;BMP280;9683;49.028;12.064;2023-10-31T13:46:55;96218.63;;;13.79
19102;BMP280;9683;49.028;12.064;2023-10-31T13:49:22;96230.41;;;13.83
19102;BMP280;9683;49.028;12.064;2023-10-31T13:51:49;96206.88;;;13.80
19102;BMP280;9683;49.028;12.064;2023-10-31T13:54:16;96236.53;;;13.99
19102;BMP280;9683;49.028;12.064;2023-10-31T13:56:43;96231.16;;;14.04
19102;BMP280;9683;49.028;12.064;2023-10-31T13:59:10;96233.03;;;14.08
19102;BMP280;9683;49.028;12.064;2023-10-31T14:01:37;96232.22;;;14.13
19102;BMP280;9683;49.028;12.064;2023-10-31T14:04:06;96212.19;;;14.00
19102;BMP280;9683;49.028;12.064;2023-10-31T14:06:32;96241.84;;;14.14
19102;BMP280;9683;49.028;12.064;2023-10-31T14:09:00;96245.84;;;14.16